Time;durP1;ratioP1;P1;durP2;ratioP2;P2;SDS_P1;SDS_P2;PMS_P1;PMS_P2;Temp;Humidity;BMP_temperature;BMP_pressure;BME280_temperature;BME280_humidity;BME280_pressure;Samples;Min_cycle;Max_cycle;Signal;HPM_P1;HPM_P2
2021/07/23 00:00:38;;;;;;;8.73;4.30;;;13.00;99.90;;;;;;5018478;28;20441;-85
2021/07/23 00:03:04;;;;;;;3.97;2.80;;;13.00;99.90;;;;;;5052797;28;20180;-87
2021/07/23 00:05:30;;;;;;;5.00;3.57;;;12.90;99.90;;;;;;5052752;28;20167;-84
2021/07/23 00:07:56;;;;;;;8.70;3.90;;;12.80;99.90;;;;;;5052350;28;20655;-84
2021/07/23 00:10:21;;;;;;;4.37;3.13;;;12.70;99.90;;;;;;5038197;28;20435;-87
2021/07/23 00:12:47;;;;;;;6.40;4.30;;;12.70;99.90;;;;;;5052090;28;20210;-85
2021/07/23 00:15:13;;;;;;;8.10;3.40;;;12.70;99.90;;;;;;5034791;28;20634;-87
2021/07/23 00:17:38;;;;;;;6.23;4.13;;;12.70;99.90;;;;;;5050972;28;20534;-83
2021/07/23 00:20:05;;;;;;;6.50;3.10;;;12.70;99.90;;;;;;5034091;28;20469;-85
2021/07/23 00:22:31;;;;;;;7.83;3.60;;;12.70;99.90;;;;;;5016855;28;20182;-87
2021/07/23 00:24:56;;;;;;;4.87;2.97;;;12.70;99.90;;;;;;5014851;28;20419;-84
2021/07/23 00:27:22;;;;;;;3.53;3.23;;;12.70;99.90;;;;;;5031955;28;20179;-88
2021/07/23 00:29:47;;;;;;;7.83;4.23;;;12.70;99.90;;;;;;5014844;28;20267;-88
2021/07/23 00:32:13;;;;;;;6.57;4.47;;;12.80;99.90;;;;;;5014374;28;20203;-84
2021/07/23 00:34:38;;;;;;;6.67;3.67;;;12.80;99.90;;;;;;5034914;28;20231;-87
2021/07/23 00:37:04;;;;;;;5.40;3.90;;;12.80;99.90;;;;;;5055976;28;20646;-85
2021/07/23 00:39:30;;;;;;;7.30;4.40;;;12.70;99.90;;;;;;5055968;28;20176;-83
2021/07/23 00:41:55;;;;;;;9.83;3.57;;;12.50;99.90;;;;;;5055420;28;20246;-84
2021/07/23 00:44:21;;;;;;;5.17;3.60;;;12.50;99.90;;;;;;5056129;28;20162;-86
2021/07/23 00:46:46;;;;;;;5.00;3.03;;;12.40;99.90;;;;;;5055704;28;20608;-87
2021/07/23 00:49:12;;;;;;;8.93;4.13;;;12.50;99.90;;;;;;5038162;28;20202;-89
2021/07/23 00:51:38;;;;;;;5.57;3.90;;;12.80;99.90;;;;;;5055849;28;20170;-84
2021/07/23 00:54:05;;;;;;;7.43;4.10;;;12.80;99.90;;;;;;5055932;28;20412;-89
2021/07/23 00:56:31;;;;;;;5.67;3.97;;;13.00;99.90;;;;;;5055731;28;20467;-88
2021/07/23 00:58:59;;;;;;;7.97;4.67;;;13.20;99.90;;;;;;5056130;28;20482;-88
2021/07/23 01:01:25;;;;;;;6.60;3.17;;;13.20;99.90;;;;;;5038196;28;20421;-90
2021/07/23 01:03:50;;;;;;;5.97;2.97;;;13.10;99.90;;;;;;5055969;28;20420;-87
2021/07/23 01:06:16;;;;;;;4.90;3.80;;;13.10;99.90;;;;;;5056003;28;20253;-85
2021/07/23 01:08:42;;;;;;;5.13;3.63;;;13.20;99.90;;;;;;5055885;28;20179;-90
2021/07/23 01:11:08;;;;;;;5.37;3.30;;;13.30;99.90;;;;;;5055392;28;20197;-84
2021/07/23 01:13:34;;;;;;;7.90;3.83;;;13.40;99.90;;;;;;5056038;28;20471;-87
2021/07/23 01:16:01;;;;;;;9.90;4.33;;;13.40;99.90;;;;;;5055810;28;20426;-85
2021/07/23 01:18:28;;;;;;;4.30;3.47;;;13.50;99.90;;;;;;5055764;28;20957;-88
2021/07/23 01:20:54;;;;;;;9.13;3.67;;;13.60;99.90;;;;;;5055628;28;20417;-88
2021/07/23 01:23:32;;;;;;;5.57;4.00;;;13.60;99.90;;;;;;5055780;28;20822;-92
2021/07/23 01:26:01;;;;;;;6.10;4.10;;;13.70;99.90;;;;;;5055815;28;20418;-91
2021/07/23 01:28:29;;;;;;;4.53;3.80;;;13.80;99.90;;;;;;5025495;28;20431;-88
2021/07/23 01:30:57;;;;;;;7.40;3.43;;;13.80;99.90;;;;;;5035865;28;20411;-90
2021/07/23 01:33:22;;;;;;;4.90;3.60;;;13.80;99.90;;;;;;5035903;28;20988;-92
2021/07/23 01:35:48;;;;;;;6.23;3.90;;;13.90;99.90;;;;;;5035806;28;20417;-91
2021/07/23 01:38:15;;;;;;;7.20;3.77;;;13.80;99.90;;;;;;5035719;28;20174;-90
2021/07/23 01:40:42;;;;;;;6.57;3.67;;;13.90;99.90;;;;;;5040594;28;20168;-91
2021/07/23 01:43:08;;;;;;;5.80;4.10;;;13.90;99.90;;;;;;5038831;28;20411;-91
2021/07/23 01:45:34;;;;;;;6.10;3.87;;;13.90;99.90;;;;;;5035137;28;20409;-92
2021/07/23 01:47:59;;;;;;;8.40;3.70;;;14.00;99.90;;;;;;5035637;28;20536;-94
2021/07/23 01:50:25;;;;;;;7.40;3.90;;;14.00;99.90;;;;;;5017990;28;20168;-92
2021/07/23 01:52:50;;;;;;;8.80;3.43;;;14.00;99.90;;;;;;5035285;28;20680;-87
2021/07/23 01:55:16;;;;;;;5.37;4.17;;;13.90;99.90;;;;;;5035023;28;20168;-87
2021/07/23 01:57:42;;;;;;;5.57;4.07;;;14.00;99.90;;;;;;5034754;28;20177;-89
2021/07/23 02:00:08;;;;;;;6.73;4.37;;;14.00;99.90;;;;;;5035270;28;20647;-88
2021/07/23 02:02:34;;;;;;;6.70;3.47;;;14.00;99.90;;;;;;5035203;28;20180;-90
2021/07/23 02:05:00;;;;;;;6.77;3.80;;;14.00;99.90;;;;;;5034917;28;20408;-89
2021/07/23 02:07:27;;;;;;;5.10;3.40;;;14.10;99.90;;;;;;5035029;28;20416;-90
2021/07/23 02:09:53;;;;;;;7.43;4.50;;;14.10;99.90;;;;;;5034890;28;20416;-91
2021/07/23 02:12:19;;;;;;;6.37;3.53;;;14.00;99.90;;;;;;5034363;28;20550;-89
2021/07/23 02:14:44;;;;;;;9.53;4.10;;;14.10;99.90;;;;;;5034765;28;20205;-88
2021/07/23 02:17:10;;;;;;;6.13;4.60;;;14.10;99.90;;;;;;5034590;28;20174;-90
2021/07/23 02:19:35;;;;;;;5.50;3.80;;;14.10;99.90;;;;;;5034577;28;20228;-90
2021/07/23 02:22:01;;;;;;;4.63;3.10;;;14.20;99.90;;;;;;5034646;28;20704;-89
2021/07/23 02:24:26;;;;;;;4.93;4.37;;;14.10;99.90;;;;;;5034560;28;20251;-88
2021/07/23 02:26:54;;;;;;;6.37;4.30;;;14.10;99.90;;;;;;5034353;28;20170;-91
2021/07/23 02:29:19;;;;;;;7.10;3.80;;;14.00;99.90;;;;;;5034631;28;20180;-90
2021/07/23 02:31:45;;;;;;;6.23;3.17;;;14.10;99.90;;;;;;5034440;28;20917;-89
2021/07/23 02:34:11;;;;;;;5.17;3.00;;;14.10;99.90;;;;;;5034374;28;20254;-91
2021/07/23 02:36:37;;;;;;;5.90;3.57;;;14.10;99.90;;;;;;5034399;28;20173;-86
2021/07/23 02:39:03;;;;;;;5.40;3.70;;;14.20;99.90;;;;;;5034436;28;20176;-89
2021/07/23 02:41:29;;;;;;;5.00;3.67;;;14.20;99.90;;;;;;5033962;28;20424;-85
2021/07/23 02:43:54;;;;;;;3.50;2.80;;;14.20;99.90;;;;;;5034085;28;20413;-89
2021/07/23 02:46:20;;;;;;;4.50;3.17;;;14.20;99.90;;;;;;5016596;28;20687;-87
2021/07/23 02:48:46;;;;;;;5.77;4.23;;;14.30;99.90;;;;;;5034071;28;20582;-89
2021/07/23 02:51:11;;;;;;;7.60;4.40;;;14.20;99.90;;;;;;5016535;28;20179;-87
2021/07/23 02:53:37;;;;;;;6.00;4.00;;;14.20;99.90;;;;;;5033788;28;20716;-88
2021/07/23 02:56:03;;;;;;;6.43;4.40;;;14.30;99.90;;;;;;5015657;28;20227;-89
2021/07/23 02:58:28;;;;;;;6.43;5.20;;;14.30;99.90;;;;;;5033173;28;20177;-89
2021/07/23 03:00:54;;;;;;;6.30;4.60;;;14.30;99.90;;;;;;5015973;28;20696;-87
2021/07/23 03:03:19;;;;;;;8.40;6.03;;;14.20;99.90;;;;;;5033465;28;20259;-86
2021/07/23 03:05:45;;;;;;;6.47;4.70;;;14.20;99.90;;;;;;5033744;28;20165;-87
2021/07/23 03:08:11;;;;;;;10.07;5.73;;;14.20;99.90;;;;;;5033446;28;20239;-85
2021/07/23 03:10:36;;;;;;;6.50;5.20;;;14.20;99.90;;;;;;5037866;28;20225;-87
2021/07/23 03:13:02;;;;;;;7.07;5.17;;;14.20;99.90;;;;;;5034505;28;20243;-88
2021/07/23 03:15:27;;;;;;;7.33;5.17;;;14.10;99.90;;;;;;5015471;28;20170;-87
2021/07/23 03:17:53;;;;;;;8.33;5.30;;;14.00;99.90;;;;;;5033142;28;20356;-87
2021/07/23 03:20:19;;;;;;;7.77;5.73;;;14.10;99.90;;;;;;5032851;28;20233;-87
2021/07/23 03:22:44;;;;;;;6.27;4.77;;;14.00;99.90;;;;;;5015486;28;20182;-87
2021/07/23 03:25:11;;;;;;;10.30;5.00;;;14.00;99.90;;;;;;5015305;28;20255;-88
2021/07/23 03:27:36;;;;;;;8.70;6.30;;;14.10;99.90;;;;;;5032675;28;20231;-87
2021/07/23 03:30:03;;;;;;;9.03;6.40;;;14.00;99.90;;;;;;5032883;28;20816;-86
2021/07/23 03:32:29;;;;;;;7.93;6.10;;;14.00;99.90;;;;;;5015608;28;20212;-87
2021/07/23 03:34:55;;;;;;;6.50;5.90;;;14.10;99.90;;;;;;5033584;28;20425;-89
2021/07/23 03:37:20;;;;;;;5.50;5.00;;;14.20;99.90;;;;;;5033511;28;20172;-88
2021/07/23 03:39:46;;;;;;;6.47;5.30;;;14.20;99.90;;;;;;5015766;28;20203;-89
2021/07/23 03:42:11;;;;;;;6.57;5.40;;;14.10;99.90;;;;;;5033105;28;20166;-88
2021/07/23 03:44:37;;;;;;;7.30;5.60;;;14.20;99.90;;;;;;5015612;28;20184;-87
2021/07/23 03:47:03;;;;;;;8.17;5.43;;;14.30;99.90;;;;;;5033401;28;20541;-89
2021/07/23 03:49:28;;;;;;;9.40;6.73;;;14.20;99.90;;;;;;5033398;28;20208;-88
2021/07/23 03:51:56;;;;;;;9.33;6.73;;;14.20;99.90;;;;;;5032923;28;20201;-89
2021/07/23 03:54:21;;;;;;;9.87;7.00;;;14.20;99.90;;;;;;5032898;28;20220;-87
2021/07/23 03:56:47;;;;;;;9.10;6.13;;;14.20;99.90;;;;;;5032672;28;20417;-88
2021/07/23 03:59:12;;;;;;;18.40;7.57;;;14.20;99.90;;;;;;5032983;28;20177;-89
2021/07/23 04:01:40;;;;;;;9.53;6.80;;;14.20;99.90;;;;;;5033121;28;20173;-91
2021/07/23 04:04:05;;;;;;;11.10;7.70;;;14.20;99.90;;;;;;5033824;28;20562;-89
2021/07/23 04:06:31;;;;;;;8.80;5.70;;;14.20;99.90;;;;;;5033739;28;20453;-86
2021/07/23 04:08:57;;;;;;;9.30;6.97;;;14.20;99.90;;;;;;5017502;28;20216;-88
2021/07/23 04:11:37;;;;;;;9.40;7.40;;;14.20;99.90;;;;;;5036371;28;20531;-89
2021/07/23 04:14:03;;;;;;;7.13;6.43;;;14.20;99.90;;;;;;5036784;28;20478;-88
2021/07/23 04:16:28;;;;;;;10.13;5.80;;;14.20;99.90;;;;;;5018917;28;20780;-88
2021/07/23 04:18:54;;;;;;;10.23;6.97;;;14.10;99.90;;;;;;5018781;28;20228;-88
2021/07/23 04:21:20;;;;;;;10.70;7.67;;;14.10;99.90;;;;;;5018810;28;20180;-88
2021/07/23 04:23:45;;;;;;;11.80;6.80;;;14.20;99.90;;;;;;5018875;28;20201;-88
2021/07/23 04:26:11;;;;;;;10.63;6.30;;;14.20;99.90;;;;;;5036122;28;20172;-89
2021/07/23 04:28:36;;;;;;;10.93;7.63;;;14.20;99.90;;;;;;5036424;28;20174;-88
2021/07/23 04:31:02;;;;;;;9.73;6.90;;;14.30;99.90;;;;;;5036365;28;20544;-89
2021/07/23 04:33:28;;;;;;;9.40;6.67;;;14.20;99.90;;;;;;5018538;28;20358;-89
2021/07/23 04:35:53;;;;;;;8.97;7.53;;;14.30;99.90;;;;;;5018552;28;20178;-89
2021/07/23 04:38:19;;;;;;;11.57;6.70;;;14.20;99.90;;;;;;5036165;28;20185;-89
2021/07/23 04:40:45;;;;;;;9.97;7.60;;;14.30;99.90;;;;;;5018441;28;20181;-88
2021/07/23 04:43:10;;;;;;;12.70;6.93;;;14.30;99.90;;;;;;5045263;28;20198;-88
2021/07/23 04:45:36;;;;;;;7.67;6.53;;;14.40;99.90;;;;;;5038365;28;20204;-89
2021/07/23 04:48:01;;;;;;;10.00;6.80;;;14.40;99.90;;;;;;5018507;28;20179;-89
2021/07/23 04:50:27;;;;;;;10.67;7.03;;;14.40;99.90;;;;;;5036029;28;20698;-89
2021/07/23 04:52:56;;;;;;;11.10;6.77;;;14.40;99.90;;;;;;5035724;28;20209;-88
2021/07/23 04:55:22;;;;;;;10.63;7.67;;;14.50;99.90;;;;;;5017722;28;20182;-87
2021/07/23 04:57:48;;;;;;;9.40;7.47;;;14.50;99.90;;;;;;5035602;28;20498;-88
2021/07/23 05:00:14;;;;;;;12.60;7.33;;;14.50;99.90;;;;;;5017994;28;20209;-89
2021/07/23 05:02:43;;;;;;;8.93;7.63;;;14.50;99.90;;;;;;5018071;28;20170;-88
2021/07/23 05:05:13;;;;;;;8.80;7.73;;;14.60;99.90;;;;;;5035749;28;20421;-88
2021/07/23 05:07:42;;;;;;;9.93;7.77;;;14.60;99.90;;;;;;5017694;28;20425;-87
2021/07/23 05:10:09;;;;;;;10.77;7.97;;;14.60;99.90;;;;;;5035398;28;20416;-89
2021/07/23 05:12:37;;;;;;;11.30;8.10;;;14.60;99.90;;;;;;5017230;28;20460;-89
2021/07/23 05:15:03;;;;;;;9.90;7.33;;;14.60;99.90;;;;;;5017754;28;20428;-89
2021/07/23 05:17:30;;;;;;;10.63;8.43;;;14.60;99.90;;;;;;5035076;28;20416;-88
2021/07/23 05:19:55;;;;;;;9.23;7.70;;;14.60;99.90;;;;;;5034338;28;20867;-88
2021/07/23 05:22:21;;;;;;;12.97;8.83;;;14.60;99.90;;;;;;5035228;28;20417;-87
2021/07/23 05:24:47;;;;;;;11.03;7.43;;;14.60;99.90;;;;;;5017445;28;20415;-89
2021/07/23 05:27:13;;;;;;;8.27;7.43;;;14.70;99.90;;;;;;5017360;28;20174;-90
2021/07/23 05:29:39;;;;;;;10.87;8.73;;;14.70;99.90;;;;;;5035570;28;20607;-89
2021/07/23 05:32:04;;;;;;;9.87;8.03;;;14.80;99.90;;;;;;5017954;28;20224;-90
2021/07/23 05:34:30;;;;;;;12.47;8.60;;;14.80;99.90;;;;;;5035523;28;20170;-89
2021/07/23 05:36:58;;;;;;;10.10;7.30;;;14.90;99.90;;;;;;5017785;28;20566;-89
2021/07/23 05:39:24;;;;;;;12.60;8.60;;;15.00;99.90;;;;;;5035498;28;20182;-90
2021/07/23 05:41:50;;;;;;;10.20;8.03;;;15.00;99.90;;;;;;5035379;28;20500;-90
2021/07/23 05:44:15;;;;;;;11.50;9.00;;;15.00;99.90;;;;;;5035521;28;20228;-87
2021/07/23 05:46:41;;;;;;;11.77;8.57;;;15.20;99.90;;;;;;5035217;28;20162;-91
2021/07/23 05:49:07;;;;;;;10.50;8.73;;;15.50;99.90;;;;;;5035349;28;20232;-91
2021/07/23 05:51:32;;;;;;;12.43;9.00;;;15.60;99.90;;;;;;5035483;28;20174;-90
2021/07/23 05:53:58;;;;;;;9.67;8.30;;;15.50;99.90;;;;;;5035174;28;20285;-89
2021/07/23 05:56:23;;;;;;;10.80;7.90;;;15.40;99.90;;;;;;5016541;28;20177;-88
2021/07/23 05:58:49;;;;;;;10.07;7.10;;;15.30;99.90;;;;;;5034719;28;20566;-88
2021/07/23 06:01:15;;;;;;;10.03;7.07;;;15.20;99.90;;;;;;5040333;28;20208;-86
2021/07/23 06:03:40;;;;;;;11.73;7.70;;;15.30;99.90;;;;;;5036598;28;20304;-89
2021/07/23 06:06:06;;;;;;;11.40;7.53;;;15.30;99.90;;;;;;5054382;28;20173;-90
2021/07/23 06:08:32;;;;;;;11.50;7.40;;;15.40;99.90;;;;;;5052932;28;20181;-89
2021/07/23 06:11:04;;;;;;;14.37;8.63;;;15.40;99.90;;;;;;5034313;28;20174;-90
2021/07/23 06:13:30;;;;;;;10.47;7.40;;;15.40;99.90;;;;;;5020410;28;20204;-90
2021/07/23 06:15:55;;;;;;;11.63;8.10;;;15.60;99.90;;;;;;5035429;28;20761;-88
2021/07/23 06:18:21;;;;;;;10.50;7.60;;;15.80;99.90;;;;;;5034411;28;20320;-89
2021/07/23 06:20:47;;;;;;;11.23;8.07;;;15.80;99.90;;;;;;5035075;28;20175;-85
2021/07/23 06:23:12;;;;;;;9.30;6.63;;;15.70;99.90;;;;;;5016193;28;20273;-86
2021/07/23 06:25:38;;;;;;;9.20;7.57;;;15.70;99.90;;;;;;5015902;28;20239;-89
2021/07/23 06:28:05;;;;;;;12.10;8.23;;;15.70;99.90;;;;;;5020388;28;20557;-88
2021/07/23 06:30:31;;;;;;;8.27;6.77;;;15.80;99.90;;;;;;5020387;28;20634;-89
2021/07/23 06:32:56;;;;;;;8.30;7.13;;;15.90;99.90;;;;;;5032717;28;20473;-89
2021/07/23 06:35:22;;;;;;;10.93;6.70;;;15.90;99.90;;;;;;5033685;28;20444;-88
2021/07/23 06:37:47;;;;;;;9.53;7.90;;;15.90;99.90;;;;;;5015977;28;20274;-87
2021/07/23 06:40:13;;;;;;;9.10;7.57;;;15.90;99.90;;;;;;5033357;28;20183;-89
2021/07/23 06:42:39;;;;;;;10.57;7.80;;;15.90;99.90;;;;;;5033664;28;20190;-88
2021/07/23 06:45:05;;;;;;;9.40;7.50;;;15.90;99.90;;;;;;5045963;28;20250;-88
2021/07/23 06:47:30;;;;;;;8.73;6.13;;;15.90;99.90;;;;;;5053368;28;20258;-87
2021/07/23 06:49:56;;;;;;;9.27;6.23;;;15.90;99.90;;;;;;5035445;28;20488;-86
2021/07/23 06:52:21;;;;;;;10.33;5.90;;;15.90;99.90;;;;;;5053068;28;20257;-87
2021/07/23 06:54:50;;;;;;;8.00;4.90;;;15.90;99.90;;;;;;5053252;28;20627;-87
2021/07/23 06:57:15;;;;;;;8.47;4.60;;;16.00;99.90;;;;;;5052892;28;20172;-86
2021/07/23 06:59:41;;;;;;;4.57;3.60;;;16.00;99.90;;;;;;5035494;28;20960;-87
2021/07/23 07:02:06;;;;;;;6.60;4.50;;;16.00;99.90;;;;;;5052840;28;20178;-86
2021/07/23 07:04:32;;;;;;;5.17;3.63;;;16.00;99.90;;;;;;5053186;28;20990;-85
2021/07/23 07:06:58;;;;;;;6.97;3.17;;;16.00;99.90;;;;;;5035141;28;20181;-87
2021/07/23 07:09:26;;;;;;;6.57;3.70;;;16.10;99.90;;;;;;5052996;28;20217;-87
2021/07/23 07:11:53;;;;;;;5.93;3.10;;;16.10;99.90;;;;;;5053015;28;20425;-86
2021/07/23 07:14:21;;;;;;;5.40;3.10;;;16.00;99.90;;;;;;5061955;28;20850;-86
2021/07/23 07:16:46;;;;;;;5.07;2.67;;;16.00;99.90;;;;;;5040545;28;20433;-87
2021/07/23 07:19:12;;;;;;;3.97;3.00;;;16.10;99.90;;;;;;5058551;28;20463;-86
2021/07/23 07:21:41;;;;;;;5.37;2.53;;;16.10;99.90;;;;;;5066506;28;20176;-86
2021/07/23 07:24:06;;;;;;;3.57;2.70;;;16.10;99.90;;;;;;5065548;28;20168;-87
2021/07/23 07:26:32;;;;;;;5.83;2.77;;;16.20;99.90;;;;;;5063042;28;20456;-87
2021/07/23 07:28:57;;;;;;;4.67;2.97;;;16.10;99.90;;;;;;5054715;28;20606;-87
2021/07/23 07:31:23;;;;;;;5.83;3.30;;;16.20;99.90;;;;;;5035330;28;20717;-90
2021/07/23 07:33:48;;;;;;;3.87;2.87;;;16.30;99.90;;;;;;5035323;28;20210;-87
2021/07/23 07:36:17;;;;;;;4.40;3.03;;;16.30;99.90;;;;;;5035173;28;20183;-86
2021/07/23 07:38:46;;;;;;;4.00;3.10;;;16.40;99.90;;;;;;5053473;28;20184;-86
2021/07/23 07:41:20;;;;;;;3.80;2.73;;;16.40;99.90;;;;;;5052327;28;20504;-86
2021/07/23 07:43:46;;;;;;;4.47;2.70;;;16.50;99.90;;;;;;5039927;28;20429;-86
2021/07/23 07:46:12;;;;;;;5.20;3.70;;;16.60;99.90;;;;;;5037302;28;20775;-85
2021/07/23 07:48:38;;;;;;;4.03;2.57;;;16.60;99.90;;;;;;5036832;28;20415;-86
2021/07/23 07:51:04;;;;;;;6.97;3.67;;;16.70;99.90;;;;;;5036856;28;20516;-86
2021/07/23 07:53:30;;;;;;;3.93;2.90;;;16.80;99.90;;;;;;5036850;28;20209;-88
2021/07/23 07:55:55;;;;;;;6.37;2.60;;;16.90;99.90;;;;;;5036542;28;20604;-87
2021/07/23 07:58:21;;;;;;;4.83;3.07;;;17.10;99.90;;;;;;5041907;28;20181;-85
2021/07/23 08:00:47;;;;;;;6.50;3.20;;;17.10;99.90;;;;;;5056220;28;20446;-89
2021/07/23 08:03:12;;;;;;;5.73;3.87;;;17.30;99.90;;;;;;5056237;28;20188;-90
2021/07/23 08:05:38;;;;;;;5.10;3.30;;;17.50;99.90;;;;;;5056231;28;20174;-87
2021/07/23 08:08:08;;;;;;;4.93;3.17;;;17.90;99.90;;;;;;5055927;28;20185;-88
2021/07/23 08:10:36;;;;;;;6.13;3.40;;;18.20;99.90;;;;;;5035851;28;20643;-87
2021/07/23 08:13:04;;;;;;;6.23;3.40;;;18.30;99.90;;;;;;5038133;28;20465;-87
2021/07/23 08:15:30;;;;;;;3.57;3.10;;;18.30;99.90;;;;;;5045430;28;20464;-85
2021/07/23 08:17:57;;;;;;;5.17;3.37;;;18.60;99.90;;;;;;5055991;28;20987;-86
2021/07/23 08:20:23;;;;;;;4.03;3.20;;;18.60;99.90;;;;;;5055928;28;20191;-88
2021/07/23 08:22:49;;;;;;;3.63;2.90;;;18.60;99.90;;;;;;5055570;28;20978;-87
2021/07/23 08:25:14;;;;;;;5.57;2.83;;;18.70;99.90;;;;;;5034228;28;20515;-89
2021/07/23 08:27:40;;;;;;;4.90;3.03;;;18.90;99.90;;;;;;5059161;28;20683;-93
2021/07/23 08:30:06;;;;;;;3.27;2.97;;;19.00;99.90;;;;;;5058564;28;20191;-95
2021/07/23 08:32:38;;;;;;;4.90;2.60;;;19.10;99.90;;;;;;5057622;28;20223;-93
2021/07/23 08:35:04;;;;;;;3.67;2.77;;;19.40;99.90;;;;;;5051024;28;20467;-92
2021/07/23 08:37:30;;;;;;;4.33;3.93;;;20.60;99.90;;;;;;5039062;28;20502;-89
2021/07/23 08:39:56;;;;;;;3.53;3.20;;;21.30;99.90;;;;;;5039065;28;20417;-91
2021/07/23 08:42:22;;;;;;;4.70;2.77;;;22.00;99.90;;;;;;5039992;28;20196;-89
2021/07/23 08:44:49;;;;;;;3.30;2.47;;;23.20;99.90;;;;;;5056245;28;20175;-91
2021/07/23 08:47:14;;;;;;;5.10;2.60;;;22.60;99.90;;;;;;5037640;28;20414;-92
2021/07/23 08:49:40;;;;;;;6.47;4.00;;;22.50;99.90;;;;;;5037017;28;20503;-90
2021/07/23 08:52:05;;;;;;;3.93;2.80;;;23.40;99.90;;;;;;5038001;28;20675;-90
2021/07/23 08:54:32;;;;;;;5.03;3.13;;;22.10;99.90;;;;;;5036771;28;20181;-90
2021/07/23 08:56:57;;;;;;;2.83;2.47;;;21.80;99.90;;;;;;5053558;28;20166;-88
2021/07/23 08:59:23;;;;;;;5.00;3.23;;;22.70;99.90;;;;;;5036462;28;20459;-91
2021/07/23 09:01:59;;;;;;;4.40;2.40;;;23.10;99.90;;;;;;5036854;28;20204;-91
2021/07/23 09:04:30;;;;;;;2.90;1.73;;;23.30;99.90;;;;;;5032710;28;20197;-88
2021/07/23 09:07:11;;;;;;;3.13;1.83;;;22.40;99.90;;;;;;5017290;28;20516;-88
2021/07/23 09:09:36;;;;;;;2.43;1.60;;;21.80;99.90;;;;;;5040818;28;20779;-86
2021/07/23 09:12:02;;;;;;;2.70;2.10;;;21.00;99.90;;;;;;5054192;28;20510;-90
2021/07/23 09:14:28;;;;;;;4.60;2.50;;;20.70;99.90;;;;;;5037642;28;20189;-91
2021/07/23 09:16:56;;;;;;;3.57;2.67;;;20.80;99.90;;;;;;5047046;28;20641;-89
2021/07/23 09:19:22;;;;;;;5.00;2.60;;;21.00;99.90;;;;;;5019236;28;20275;-88
2021/07/23 09:21:55;;;;;;;3.83;2.37;;;20.70;99.90;;;;;;5019132;28;20471;-86
2021/07/23 09:24:23;;;;;;;4.53;3.33;;;20.40;99.90;;;;;;5058054;22;20228;-88
2021/07/23 09:26:48;;;;;;;4.40;3.00;;;20.30;99.90;;;;;;5048319;28;20413;-91
2021/07/23 09:29:15;;;;;;;3.70;2.70;;;20.10;99.90;;;;;;5062880;28;20659;-89
2021/07/23 09:32:01;;;;;;;5.60;2.73;;;19.80;99.90;;;;;;5043083;28;20265;-82
2021/07/23 09:34:35;;;;;;;5.30;3.50;;;19.70;99.90;;;;;;5069887;28;20895;-80
2021/07/23 09:37:11;;;;;;;5.47;3.10;;;19.60;99.90;;;;;;5046180;28;20423;-81
2021/07/23 09:39:40;;;;;;;4.50;2.20;;;19.60;99.90;;;;;;5050007;28;20425;-81
2021/07/23 09:42:06;;;;;;;3.73;2.10;;;19.40;99.90;;;;;;5045355;28;20411;-82
2021/07/23 09:44:31;;;;;;;3.60;1.90;;;19.40;99.90;;;;;;5062730;28;20428;-81
2021/07/23 09:46:57;;;;;;;4.30;1.90;;;19.40;99.90;;;;;;5040003;28;20417;-83
2021/07/23 09:49:28;;;;;;;2.63;1.73;;;19.30;99.90;;;;;;5059808;28;20173;-81
2021/07/23 09:51:55;;;;;;;2.83;2.47;;;19.30;99.90;;;;;;5060924;28;20420;-81
2021/07/23 09:54:22;;;;;;;3.30;2.30;;;19.40;99.90;;;;;;5062148;28;20478;-81
2021/07/23 09:56:48;;;;;;;3.67;1.60;;;19.20;99.90;;;;;;5060760;28;20400;-80
2021/07/23 09:59:36;;;;;;;4.00;2.50;;;19.10;99.90;;;;;;5044997;28;20984;-80
2021/07/23 10:02:03;;;;;;;5.10;2.53;;;19.00;99.90;;;;;;5052116;28;20982;-82
2021/07/23 10:04:50;;;;;;;3.67;1.80;;;18.90;99.90;;;;;;5045118;28;20427;-81
2021/07/23 10:07:22;;;;;;;4.33;2.23;;;18.70;99.90;;;;;;5047088;28;20423;-81
2021/07/23 10:09:53;;;;;;;2.63;1.70;;;18.80;99.90;;;;;;5045069;28;20412;-81
2021/07/23 10:12:19;;;;;;;4.43;2.73;;;18.70;99.90;;;;;;5048778;28;20596;-81
2021/07/23 10:14:46;;;;;;;2.70;2.20;;;18.90;99.90;;;;;;5041739;28;20460;-81
2021/07/23 10:17:12;;;;;;;4.10;2.00;;;19.20;99.90;;;;;;5044995;28;20290;-81
2021/07/23 10:19:38;;;;;;;3.07;2.10;;;19.60;99.90;;;;;;5062099;28;20513;-81
2021/07/23 10:22:05;;;;;;;3.40;1.83;;;19.90;99.90;;;;;;5061630;28;20509;-82
2021/07/23 10:24:33;;;;;;;3.17;2.33;;;20.30;99.90;;;;;;5062714;28;20568;-81
2021/07/23 10:27:06;;;;;;;3.10;1.70;;;20.50;99.90;;;;;;5061337;28;20505;-81
2021/07/23 10:30:01;;;;;;;5.77;3.50;;;20.70;99.90;;;;;;5064571;28;20404;-85
2021/07/23 10:32:34;;;;;;;2.47;2.17;;;21.20;99.90;;;;;;5047350;28;20576;-80
2021/07/23 10:35:16;;;;;;;5.00;2.40;;;21.50;99.90;;;;;;5052425;28;20811;-81
2021/07/23 10:37:49;;;;;;;2.63;1.87;;;21.50;99.90;;;;;;5071865;28;20945;-82
2021/07/23 10:40:16;;;;;;;3.47;2.60;;;21.40;99.90;;;;;;5071349;28;20412;-81
2021/07/23 10:42:43;;;;;;;4.80;3.37;;;21.00;99.90;;;;;;5073153;28;20488;-84
2021/07/23 10:45:12;;;;;;;4.47;2.60;;;20.70;99.90;;;;;;5060802;28;20963;-81
2021/07/23 10:47:38;;;;;;;6.73;3.50;;;20.20;99.90;;;;;;5053579;28;20965;-83
2021/07/23 10:50:06;;;;;;;3.80;2.87;;;20.00;99.90;;;;;;5066489;28;20475;-81
2021/07/23 10:52:36;;;;;;;4.97;2.33;;;20.00;99.90;;;;;;5073093;28;20471;-82
2021/07/23 10:55:13;;;;;;;3.50;2.70;;;20.20;99.90;;;;;;5072804;28;20425;-80
2021/07/23 10:57:40;;;;;;;6.30;2.90;;;20.10;99.90;;;;;;5055238;28;20440;-80
2021/07/23 11:00:06;;;;;;;4.20;3.20;;;20.10;99.90;;;;;;5055239;28;20448;-79
2021/07/23 11:02:32;;;;;;;5.40;3.13;;;20.30;99.90;;;;;;5073080;28;20741;-82
2021/07/23 11:05:09;;;;;;;5.13;3.23;;;20.30;99.90;;;;;;5073095;28;20450;-80
2021/07/23 11:07:36;;;;;;;5.00;3.33;;;20.10;99.90;;;;;;5055107;28;20202;-83
2021/07/23 11:10:03;;;;;;;3.07;2.77;;;20.20;99.90;;;;;;5072651;28;20405;-83
2021/07/23 11:12:33;;;;;;;2.80;2.47;;;20.20;99.90;;;;;;5072854;28;20452;-81
2021/07/23 11:15:01;;;;;;;3.93;2.23;;;20.20;99.90;;;;;;5072466;28;20927;-81
2021/07/23 11:17:30;;;;;;;3.90;2.80;;;20.20;99.90;;;;;;5072145;28;20416;-81
2021/07/23 11:20:02;;;;;;;3.80;2.73;;;20.10;99.90;;;;;;5073169;28;20808;-80
2021/07/23 11:22:32;;;;;;;7.40;3.10;;;20.00;99.90;;;;;;5072846;28;20804;-81
2021/07/23 11:25:07;;;;;;;6.17;3.10;;;19.90;99.90;;;;;;5072178;28;20550;-80
2021/07/23 11:27:36;;;;;;;3.30;2.80;;;19.70;99.90;;;;;;5072744;28;20816;-80
2021/07/23 11:30:16;;;;;;;3.53;2.97;;;19.70;99.90;;;;;;5072691;28;20406;-81
2021/07/23 11:32:59;;;;;;;3.83;2.80;;;19.70;99.90;;;;;;5054690;28;20502;-80
2021/07/23 11:35:26;;;;;;;4.43;2.37;;;19.70;99.90;;;;;;5072545;28;20418;-81
2021/07/23 11:37:54;;;;;;;3.23;2.43;;;19.70;99.90;;;;;;5060738;28;20416;-80
2021/07/23 11:40:22;;;;;;;3.07;2.77;;;19.80;99.90;;;;;;5062264;28;20404;-80
2021/07/23 11:42:52;;;;;;;3.50;2.60;;;20.10;99.90;;;;;;5062811;28;20416;-83
2021/07/23 11:45:19;;;;;;;3.47;2.50;;;20.40;99.90;;;;;;5065733;28;20426;-84
2021/07/23 11:47:50;;;;;;;4.67;1.83;;;20.80;99.90;;;;;;5061034;28;20429;-80
2021/07/23 11:50:24;;;;;;;3.17;2.23;;;21.20;99.90;;;;;;5061793;28;20417;-80
2021/07/23 11:53:02;;;;;;;2.53;1.67;;;21.30;99.90;;;;;;5061379;28;20569;-80
2021/07/23 11:55:42;;;;;;;2.90;1.80;;;21.30;99.90;;;;;;5059917;28;20438;-80
2021/07/23 11:58:09;;;;;;;2.47;2.27;;;21.30;99.90;;;;;;5060437;28;20422;-81
2021/07/23 12:00:35;;;;;;;2.20;2.00;;;21.50;99.90;;;;;;5063020;28;20418;-82
2021/07/23 12:03:16;;;;;;;3.77;2.53;;;21.40;99.90;;;;;;5044652;28;20430;-83
2021/07/23 12:05:42;;;;;;;2.50;2.10;;;21.30;99.90;;;;;;5062801;28;20909;-82
2021/07/23 12:08:07;;;;;;;2.67;1.83;;;21.20;99.90;;;;;;5058215;28;20434;-82
2021/07/23 12:10:34;;;;;;;2.83;1.67;;;21.00;99.90;;;;;;5058548;28;20184;-82
2021/07/23 12:13:06;;;;;;;3.40;2.00;;;20.90;99.90;;;;;;5063415;28;20310;-80
2021/07/23 12:15:56;;;;;;;2.50;1.70;;;20.80;99.90;;;;;;5060110;28;20417;-82
2021/07/23 12:18:24;;;;;;;2.63;2.37;;;20.60;99.90;;;;;;5062883;28;20422;-83
2021/07/23 12:20:51;;;;;;;4.03;1.97;;;20.50;99.90;;;;;;5060944;28;20496;-81
2021/07/23 12:23:27;;;;;;;3.47;2.50;;;20.40;99.90;;;;;;5061050;28;20447;-81
2021/07/23 12:25:53;;;;;;;3.60;2.10;;;20.50;99.90;;;;;;5053686;28;20467;-79
2021/07/23 12:28:19;;;;;;;3.43;2.60;;;20.50;99.90;;;;;;5051881;28;20763;-79
2021/07/23 12:30:49;;;;;;;2.60;2.40;;;20.50;99.90;;;;;;5055000;28;20786;-80
2021/07/23 12:33:19;;;;;;;2.80;2.60;;;20.60;99.90;;;;;;5056665;28;20950;-80
2021/07/23 12:35:46;;;;;;;3.40;2.13;;;20.60;99.90;;;;;;5075506;28;20432;-81
2021/07/23 12:38:13;;;;;;;2.50;2.30;;;20.40;99.90;;;;;;5075705;28;20409;-80
2021/07/23 12:40:54;;;;;;;3.00;2.60;;;20.50;99.90;;;;;;5075155;28;20413;-80
2021/07/23 12:43:24;;;;;;;3.23;2.50;;;20.40;99.90;;;;;;5058040;28;20420;-80
2021/07/23 12:45:50;;;;;;;3.40;2.07;;;20.40;99.90;;;;;;5075534;28;20785;-79